createdAt,value
2023-05-04T00:01:40.229Z,10.79
2023-05-04T00:04:28.604Z,10.79
2023-05-04T00:07:18.588Z,10.74
2023-05-04T00:10:08.222Z,10.69
2023-05-04T00:12:56.849Z,10.75
2023-05-04T00:15:45.240Z,10.72
2023-05-04T00:18:33.654Z,10.68
2023-05-04T00:21:22.197Z,10.66
2023-05-04T00:24:11.953Z,10.62
2023-05-04T00:27:00.400Z,10.61
2023-05-04T00:29:48.828Z,10.55
2023-05-04T00:32:37.407Z,10.51
2023-05-04T00:35:26.295Z,10.51
2023-05-04T00:38:16.683Z,10.47
2023-05-04T00:41:06.817Z,10.49
2023-05-04T00:43:55.250Z,10.41
2023-05-04T00:46:43.873Z,10.38
2023-05-04T00:49:32.441Z,10.34
2023-05-04T00:52:22.329Z,10.33
2023-05-04T00:55:11.008Z,10.30
2023-05-04T00:58:00.749Z,10.27
2023-05-04T01:00:49.230Z,10.23
2023-05-04T01:03:37.819Z,10.30
2023-05-04T01:06:32.402Z,10.27
2023-05-04T01:09:24.881Z,10.20
2023-05-04T01:12:18.190Z,10.16
2023-05-04T01:15:10.777Z,10.20
2023-05-04T01:17:59.226Z,10.09
2023-05-04T01:20:47.933Z,10.14
2023-05-04T01:23:37.747Z,10.16
2023-05-04T01:26:29.134Z,10.11
2023-05-04T01:29:19.643Z,10.12
2023-05-04T01:32:09.277Z,10.09
2023-05-04T01:34:57.746Z,10.05
2023-05-04T01:37:46.194Z,10.01
2023-05-04T01:40:36.007Z,10.01
2023-05-04T01:43:24.561Z,10.01
2023-05-04T01:46:13.004Z,9.95
2023-05-04T01:49:01.633Z,9.95
2023-05-04T01:51:50.456Z,9.89
2023-05-04T01:54:39.026Z,9.80
2023-05-04T01:57:29.314Z,9.83
2023-05-04T02:00:17.863Z,9.76
2023-05-04T02:03:09.556Z,9.75
2023-05-04T02:05:58.160Z,9.70
2023-05-04T02:08:46.747Z,9.73
2023-05-04T02:11:35.102Z,9.69
2023-05-04T02:14:24.827Z,9.64
2023-05-04T02:17:13.223Z,9.59
2023-05-04T02:20:01.621Z,9.58
2023-05-04T02:22:50.031Z,9.60
2023-05-04T02:25:40.781Z,9.54
2023-05-04T02:28:30.775Z,9.53
2023-05-04T02:31:20.584Z,9.49
2023-05-04T02:34:08.982Z,9.48
2023-05-04T02:37:03.274Z,9.44
2023-05-04T02:39:52.513Z,9.43
2023-05-04T02:42:40.929Z,9.30
2023-05-04T02:45:29.318Z,9.30
2023-05-04T02:48:19.019Z,9.31
2023-05-04T02:51:07.505Z,9.29
2023-05-04T02:53:55.958Z,9.32
2023-05-04T02:56:44.341Z,9.23
2023-05-04T02:59:32.717Z,9.27
2023-05-04T03:02:21.235Z,9.19
2023-05-04T03:05:11.362Z,9.14
2023-05-04T03:07:59.741Z,9.13
2023-05-04T03:10:48.158Z,9.09
2023-05-04T03:13:37.423Z,9.13
2023-05-04T03:16:25.865Z,9.09
2023-05-04T03:19:14.349Z,9.14
2023-05-04T03:22:04.221Z,9.15
2023-05-04T03:24:52.773Z,9.15
2023-05-04T03:27:41.271Z,9.02
2023-05-04T03:30:29.781Z,9.04
2023-05-04T03:33:21.961Z,9.03
2023-05-04T03:36:10.432Z,9.02
2023-05-04T03:39:02.537Z,9.00
2023-05-04T03:41:52.284Z,8.97
2023-05-04T03:44:41.687Z,9.00
2023-05-04T03:47:30.732Z,8.98
2023-05-04T03:50:19.425Z,8.98
2023-05-04T03:53:07.892Z,8.95
2023-05-04T03:55:57.677Z,8.93
2023-05-04T03:58:46.195Z,8.91
2023-05-04T04:01:36.342Z,8.88
2023-05-04T04:04:24.881Z,8.89
2023-05-04T04:07:13.305Z,8.89
2023-05-04T04:10:01.904Z,8.88
2023-05-04T04:12:53.108Z,8.88
2023-05-04T04:15:44.862Z,8.91
2023-05-04T04:18:33.486Z,8.82
2023-05-04T04:21:21.927Z,8.89
2023-05-04T04:24:10.309Z,8.92
2023-05-04T04:26:58.670Z,8.92
2023-05-04T04:29:48.431Z,8.91
2023-05-04T04:32:37.619Z,8.88
2023-05-04T04:35:27.478Z,8.88
2023-05-04T04:38:15.887Z,8.93
2023-05-04T04:41:04.260Z,8.95
2023-05-04T04:43:52.631Z,9.00
2023-05-04T04:46:42.473Z,9.00
2023-05-04T04:49:30.883Z,9.00
2023-05-04T04:52:19.298Z,8.97
2023-05-04T04:55:08.741Z,8.96
2023-05-04T04:57:57.159Z,9.01
2023-05-04T05:00:45.723Z,9.02
2023-05-04T05:03:35.481Z,9.04
2023-05-04T05:06:24.035Z,9.05
2023-05-04T05:09:12.367Z,9.10
2023-05-04T05:12:01.085Z,9.11
2023-05-04T05:14:50.746Z,9.12
2023-05-04T05:17:39.394Z,9.17
2023-05-04T05:20:29.264Z,9.15
2023-05-04T05:23:18.022Z,9.17
2023-05-04T05:26:06.401Z,9.20
2023-05-04T05:28:54.876Z,9.27
2023-05-04T05:31:43.334Z,9.30
2023-05-04T05:34:31.825Z,9.31
2023-05-04T05:37:21.614Z,9.38
2023-05-04T05:40:10.813Z,9.40
2023-05-04T05:42:59.306Z,9.46
2023-05-04T05:45:47.620Z,9.56
2023-05-04T05:48:36.098Z,9.58
2023-05-04T05:51:24.445Z,9.57
2023-05-04T05:54:14.198Z,9.60
2023-05-04T05:57:02.844Z,9.71
2023-05-04T05:59:51.431Z,9.82
2023-05-04T06:02:39.979Z,9.78
2023-05-04T06:05:28.432Z,9.90
2023-05-04T06:08:16.830Z,9.89
2023-05-04T06:11:06.870Z,9.90
2023-05-04T06:13:55.311Z,10.00
2023-05-04T06:16:43.839Z,10.11
2023-05-04T06:19:35.350Z,10.16
2023-05-04T06:22:23.866Z,10.18
2023-05-04T06:25:12.559Z,10.25
2023-05-04T06:28:02.532Z,10.32
2023-05-04T06:30:50.993Z,10.38
2023-05-04T06:33:39.366Z,10.45
2023-05-04T06:36:27.777Z,10.58
2023-05-04T06:39:16.261Z,10.67
2023-05-04T06:42:04.811Z,10.69
2023-05-04T06:44:59.741Z,10.76
2023-05-04T06:47:48.237Z,10.82
2023-05-04T06:50:36.686Z,10.86
2023-05-04T06:53:25.096Z,10.92
2023-05-04T06:56:13.486Z,11.01
2023-05-04T06:59:01.923Z,11.05
2023-05-04T07:01:51.685Z,11.18
2023-05-04T07:04:40.341Z,11.31
2023-05-04T07:07:28.767Z,11.41
2023-05-04T07:10:17.494Z,11.51
2023-05-04T07:13:05.993Z,11.55
2023-05-04T07:15:54.426Z,11.54
2023-05-04T07:18:44.176Z,11.64
2023-05-04T07:21:32.608Z,11.75
2023-05-04T07:24:21.009Z,11.75
2023-05-04T07:27:10.591Z,11.81
2023-05-04T07:29:58.956Z,11.91
2023-05-04T07:32:47.494Z,11.98
2023-05-04T07:35:37.308Z,12.10
2023-05-04T07:38:26.161Z,12.17
2023-05-04T07:41:14.589Z,12.24
2023-05-04T07:44:05.664Z,12.22
2023-05-04T07:46:54.057Z,12.28
2023-05-04T07:49:42.556Z,12.36
2023-05-04T07:52:32.317Z,12.46
2023-05-04T07:55:20.779Z,12.57
2023-05-04T07:58:10.147Z,12.59
2023-05-04T08:00:58.667Z,12.62
2023-05-04T08:03:47.003Z,12.72
2023-05-04T08:06:39.365Z,12.71
2023-05-04T08:09:29.225Z,12.85
2023-05-04T08:12:17.607Z,12.96
2023-05-04T08:15:07.637Z,12.98
2023-05-04T08:17:55.984Z,13.02
2023-05-04T08:20:44.736Z,13.20
2023-05-04T08:23:33.882Z,13.34
2023-05-04T08:26:23.709Z,13.39
2023-05-04T08:29:12.134Z,13.48
2023-05-04T08:32:00.751Z,13.59
2023-05-04T08:34:49.132Z,13.69
2023-05-04T08:37:37.526Z,13.73
2023-05-04T08:40:25.973Z,13.75
2023-05-04T08:43:16.319Z,13.77
2023-05-04T08:46:05.274Z,13.84
2023-05-04T08:48:53.777Z,14.00
2023-05-04T08:51:43.586Z,14.08
2023-05-04T08:54:32.142Z,14.12
2023-05-04T08:57:21.029Z,14.32
2023-05-04T09:00:13.441Z,14.31
2023-05-04T09:03:03.766Z,14.41
2023-05-04T09:05:52.931Z,14.45
2023-05-04T09:08:41.351Z,14.42
2023-05-04T09:11:29.721Z,14.44
2023-05-04T09:14:18.057Z,14.51
2023-05-04T09:17:16.517Z,14.61
2023-05-04T09:20:05.706Z,14.68
2023-05-04T09:23:06.984Z,14.77
2023-05-04T09:25:56.707Z,14.86
2023-05-04T09:28:45.346Z,15.00
2023-05-04T09:31:43.645Z,15.04
2023-05-04T09:34:33.700Z,15.07
2023-05-04T09:37:22.665Z,15.15
2023-05-04T09:40:13.068Z,15.25
2023-05-04T09:43:01.627Z,15.24
2023-05-04T09:45:50.304Z,15.33
2023-05-04T09:48:38.704Z,15.34
2023-05-04T09:51:28.455Z,15.42
2023-05-04T09:54:17.906Z,15.40
2023-05-04T09:57:11.643Z,15.57
2023-05-04T10:00:00.007Z,15.61
2023-05-04T10:02:49.353Z,15.57
2023-05-04T10:05:39.994Z,15.73
2023-05-04T10:08:29.902Z,15.87
2023-05-04T10:11:20.652Z,15.76
2023-05-04T10:14:09.099Z,15.83
2023-05-04T10:17:03.295Z,16.01
2023-05-04T10:20:05.468Z,15.98
2023-05-04T10:23:15.363Z,16.07
2023-05-04T10:26:23.489Z,16.22
2023-05-04T10:29:23.272Z,16.29
2023-05-04T10:32:19.042Z,16.39
2023-05-04T10:35:08.734Z,16.41
2023-05-04T10:37:57.791Z,16.41
2023-05-04T10:40:49.002Z,16.38
2023-05-04T10:43:38.807Z,16.40
2023-05-04T10:46:27.979Z,16.47
2023-05-04T10:49:17.932Z,16.46
2023-05-04T10:52:07.994Z,16.51
2023-05-04T10:55:00.846Z,16.64
2023-05-04T10:57:50.828Z,16.75
2023-05-04T11:00:41.625Z,16.77
2023-05-04T11:03:40.977Z,16.73
2023-05-04T11:06:29.491Z,16.78
2023-05-04T11:09:17.875Z,16.91
2023-05-04T11:12:06.616Z,16.90
2023-05-04T11:15:05.207Z,16.94
2023-05-04T11:17:55.216Z,17.04
2023-05-04T11:20:43.694Z,17.12
2023-05-04T11:23:32.604Z,17.26
2023-05-04T11:26:20.982Z,17.22
2023-05-04T11:29:13.799Z,17.25
2023-05-04T11:32:02.259Z,17.34
2023-05-04T11:34:52.018Z,17.35
2023-05-04T11:37:41.345Z,17.50
2023-05-04T11:40:29.707Z,17.53
2023-05-04T11:43:18.427Z,17.51
2023-05-04T11:46:07.819Z,17.60
2023-05-04T11:48:56.238Z,17.55
2023-05-04T11:51:46.358Z,17.53
2023-05-04T11:54:34.902Z,17.46
2023-05-04T11:57:23.500Z,17.52
2023-05-04T12:00:13.207Z,17.62
2023-05-04T12:03:02.181Z,17.69
2023-05-04T12:05:52.054Z,17.63
2023-05-04T12:08:43.410Z,17.66
2023-05-04T12:11:31.849Z,17.70
2023-05-04T12:14:20.780Z,17.78
2023-05-04T12:17:09.129Z,17.90
2023-05-04T12:19:58.189Z,17.95
2023-05-04T12:22:46.538Z,18.00
2023-05-04T12:25:44.174Z,18.00
2023-05-04T12:28:40.708Z,18.09
2023-05-04T12:31:30.416Z,18.03
2023-05-04T12:34:18.948Z,18.18
2023-05-04T12:37:07.440Z,18.43
2023-05-04T12:39:56.142Z,18.40
2023-05-04T12:42:45.834Z,18.44
2023-05-04T12:45:34.449Z,18.59
2023-05-04T12:48:22.896Z,18.65
2023-05-04T12:51:11.270Z,18.50
2023-05-04T12:53:59.652Z,18.62
2023-05-04T12:56:48.026Z,18.65
2023-05-04T12:59:38.004Z,18.60
2023-05-04T13:02:26.444Z,18.67
2023-05-04T13:05:15.989Z,18.64
2023-05-04T13:08:04.400Z,18.77
2023-05-04T13:10:52.854Z,19.02
2023-05-04T13:13:41.425Z,19.09
2023-05-04T13:16:31.847Z,18.91
2023-05-04T13:19:20.378Z,18.98
2023-05-04T13:22:08.710Z,19.05
2023-05-04T13:24:57.086Z,19.20
2023-05-04T13:27:45.454Z,19.25
2023-05-04T13:30:33.807Z,19.19
2023-05-04T13:33:29.334Z,19.27
2023-05-04T13:36:18.760Z,19.37
2023-05-04T13:39:07.133Z,19.47
2023-05-04T13:41:55.934Z,19.40
2023-05-04T13:44:45.659Z,19.45
2023-05-04T13:47:36.968Z,19.50
2023-05-04T13:50:26.816Z,19.59
2023-05-04T13:53:15.319Z,19.62
2023-05-04T13:56:03.963Z,19.68
2023-05-04T13:58:53.884Z,19.79
2023-05-04T14:01:42.353Z,19.74
2023-05-04T14:04:31.844Z,19.67
2023-05-04T14:07:21.552Z,19.85
2023-05-04T14:10:10.883Z,19.84
2023-05-04T14:12:59.373Z,19.77
2023-05-04T14:15:48.337Z,19.82
2023-05-04T14:18:37.001Z,19.86
2023-05-04T14:21:25.467Z,19.74
2023-05-04T14:24:15.188Z,19.92
2023-05-04T14:27:03.603Z,19.79
2023-05-04T14:29:53.172Z,20.05
2023-05-04T14:32:42.097Z,20.09
2023-05-04T14:35:30.534Z,20.54
2023-05-04T14:38:18.920Z,20.61
2023-05-04T14:41:08.822Z,20.49
2023-05-04T14:43:57.246Z,20.44
2023-05-04T14:46:45.630Z,20.50
2023-05-04T14:49:37.306Z,20.93
2023-05-04T14:52:26.811Z,21.11
2023-05-04T14:55:15.386Z,21.12
2023-05-04T14:58:05.435Z,21.12
2023-05-04T15:00:54.650Z,21.23
2023-05-04T15:03:43.166Z,21.09
2023-05-04T15:06:32.801Z,21.33
2023-05-04T15:09:21.203Z,21.24
2023-05-04T15:12:09.656Z,21.22
2023-05-04T15:14:59.435Z,21.52
2023-05-04T15:17:47.833Z,21.44
2023-05-04T15:20:38.230Z,21.71
2023-05-04T15:23:26.602Z,21.52
2023-05-04T15:26:15.092Z,21.60
2023-05-04T15:29:03.997Z,21.67
2023-05-04T15:31:53.923Z,21.44
2023-05-04T15:34:45.847Z,21.76
2023-05-04T15:37:39.229Z,21.78
2023-05-04T15:40:27.659Z,21.90
2023-05-04T15:43:16.210Z,21.89
2023-05-04T15:46:04.679Z,21.52
2023-05-04T15:48:54.677Z,21.51
2023-05-04T15:51:43.166Z,21.61
2023-05-04T15:54:31.605Z,21.31
2023-05-04T15:57:20.055Z,21.30
2023-05-04T16:00:09.549Z,21.01
2023-05-04T16:02:57.981Z,20.90
2023-05-04T16:05:47.807Z,20.79
2023-05-04T16:08:36.516Z,20.98
2023-05-04T16:11:24.986Z,20.86
2023-05-04T16:14:14.220Z,20.72
2023-05-04T16:17:02.727Z,20.61
2023-05-04T16:19:51.101Z,20.58
2023-05-04T16:22:40.851Z,20.48
2023-05-04T16:25:29.252Z,20.36
2023-05-04T16:28:17.658Z,20.27
2023-05-04T16:31:06.301Z,20.19
2023-05-04T16:33:54.700Z,20.41
2023-05-04T16:36:43.791Z,20.38
2023-05-04T16:39:34.402Z,20.11
2023-05-04T16:42:22.762Z,20.20
2023-05-04T16:45:13.514Z,20.20
2023-05-04T16:48:01.996Z,20.32
2023-05-04T16:50:50.518Z,20.28
2023-05-04T16:53:38.838Z,20.01
2023-05-04T16:56:28.559Z,19.83
2023-05-04T16:59:16.907Z,19.68
2023-05-04T17:02:05.383Z,19.85
2023-05-04T17:04:54.322Z,19.85
2023-05-04T17:07:43.507Z,19.75
2023-05-04T17:10:32.000Z,19.49
2023-05-04T17:13:21.843Z,19.40
2023-05-04T17:16:10.612Z,19.26
2023-05-04T17:18:59.075Z,19.31
2023-05-04T17:21:47.573Z,19.00
2023-05-04T17:24:36.177Z,19.11
2023-05-04T17:27:24.562Z,19.11
2023-05-04T17:30:14.879Z,19.01
2023-05-04T17:33:03.311Z,19.10
2023-05-04T17:35:51.794Z,18.86
2023-05-04T17:38:40.322Z,18.64
2023-05-04T17:41:29.027Z,18.68
2023-05-04T17:44:17.543Z,18.57
2023-05-04T17:47:07.797Z,18.47
2023-05-04T17:49:56.216Z,18.51
2023-05-04T17:52:44.642Z,18.37
2023-05-04T17:55:33.008Z,18.47
2023-05-04T17:58:21.743Z,18.29
2023-05-04T18:01:10.387Z,18.30
2023-05-04T18:04:03.157Z,18.40
2023-05-04T18:06:51.522Z,18.16
2023-05-04T18:09:39.948Z,18.02
2023-05-04T18:12:28.403Z,18.09
2023-05-04T18:15:18.445Z,18.09
2023-05-04T18:18:06.929Z,17.87
2023-05-04T18:20:58.551Z,17.86
2023-05-04T18:23:47.218Z,17.79
2023-05-04T18:26:35.913Z,17.76
2023-05-04T18:29:24.771Z,17.59
2023-05-04T18:32:13.240Z,17.49
2023-05-04T18:35:01.781Z,17.56
2023-05-04T18:37:51.761Z,17.32
2023-05-04T18:40:40.150Z,17.29
2023-05-04T18:43:28.564Z,17.16
2023-05-04T18:46:17.024Z,17.26
2023-05-04T18:49:05.448Z,17.29
2023-05-04T18:51:53.817Z,17.34
2023-05-04T18:54:43.665Z,17.32
2023-05-04T18:57:32.013Z,17.19
2023-05-04T19:00:21.467Z,16.84
2023-05-04T19:03:09.879Z,16.97
2023-05-04T19:05:58.306Z,17.01
2023-05-04T19:08:46.694Z,17.01
2023-05-04T19:11:36.546Z,16.98
2023-05-04T19:14:25.355Z,16.92
2023-05-04T19:17:14.742Z,16.84
2023-05-04T19:20:03.423Z,16.80
2023-05-04T19:22:51.882Z,16.77
2023-05-04T19:25:40.587Z,16.71
2023-05-04T19:28:30.349Z,16.70
2023-05-04T19:31:18.800Z,16.63
2023-05-04T19:34:07.213Z,16.53
2023-05-04T19:36:55.717Z,16.48
2023-05-04T19:39:44.260Z,16.44
2023-05-04T19:42:32.714Z,16.38
2023-05-04T19:45:22.559Z,16.33
2023-05-04T19:48:13.072Z,16.24
2023-05-04T19:51:02.083Z,16.19
2023-05-04T19:53:50.434Z,16.11
2023-05-04T19:56:38.773Z,16.01
2023-05-04T19:59:27.212Z,15.99
2023-05-04T20:02:16.961Z,15.96
2023-05-04T20:05:05.713Z,15.90
2023-05-04T20:07:54.084Z,15.81
2023-05-04T20:10:42.813Z,15.75
2023-05-04T20:13:31.257Z,15.70
2023-05-04T20:16:20.758Z,15.65
2023-05-04T20:19:10.544Z,15.57
2023-05-04T20:21:58.912Z,15.50
2023-05-04T20:24:47.325Z,15.41
2023-05-04T20:27:35.794Z,15.29
2023-05-04T20:30:28.081Z,15.21
2023-05-04T20:33:16.503Z,15.13
2023-05-04T20:36:07.312Z,15.06
2023-05-04T20:38:56.394Z,14.94
2023-05-04T20:41:44.812Z,14.90
2023-05-04T20:44:33.200Z,14.82
2023-05-04T20:47:21.847Z,14.81
2023-05-04T20:50:12.058Z,14.78
2023-05-04T20:53:02.178Z,14.75
2023-05-04T20:55:50.602Z,14.70
2023-05-04T20:58:39.272Z,14.68
2023-05-04T21:01:29.591Z,14.64
2023-05-04T21:04:17.987Z,14.59
2023-05-04T21:07:06.387Z,14.53
2023-05-04T21:09:58.765Z,14.48
2023-05-04T21:12:47.387Z,14.44
2023-05-04T21:15:36.452Z,14.39
2023-05-04T21:18:24.803Z,14.33
2023-05-04T21:21:13.205Z,14.30
2023-05-04T21:24:01.588Z,14.27
2023-05-04T21:26:51.501Z,14.17
2023-05-04T21:29:39.826Z,14.08
2023-05-04T21:32:28.305Z,14.01
2023-05-04T21:35:21.003Z,13.98
2023-05-04T21:38:09.415Z,13.94
2023-05-04T21:40:57.780Z,13.85
2023-05-04T21:43:47.522Z,13.80
2023-05-04T21:46:35.926Z,13.74
2023-05-04T21:49:24.647Z,13.67
2023-05-04T21:52:13.070Z,13.54
2023-05-04T21:55:01.459Z,13.50
2023-05-04T21:57:49.914Z,13.41
2023-05-04T22:00:39.645Z,13.35
2023-05-04T22:03:29.585Z,13.30
2023-05-04T22:06:18.866Z,13.27
2023-05-04T22:09:07.227Z,13.22
2023-05-04T22:11:55.800Z,13.19
2023-05-04T22:14:44.170Z,13.15
2023-05-04T22:17:33.984Z,13.12
2023-05-04T22:20:23.434Z,13.12
2023-05-04T22:23:12.035Z,13.08
2023-05-04T22:26:00.412Z,13.11
2023-05-04T22:28:48.815Z,13.02
2023-05-04T22:31:37.186Z,12.99
2023-05-04T22:34:26.868Z,12.93
2023-05-04T22:37:15.247Z,12.88
2023-05-04T22:40:04.607Z,12.82
2023-05-04T22:42:53.061Z,12.77
2023-05-04T22:45:41.409Z,12.73
2023-05-04T22:48:29.968Z,12.71
2023-05-04T22:51:19.710Z,12.70
2023-05-04T22:54:08.051Z,12.71
2023-05-04T22:56:56.393Z,12.71
2023-05-04T22:59:44.737Z,12.60
2023-05-04T23:02:33.164Z,12.56
2023-05-04T23:05:21.804Z,12.40
2023-05-04T23:08:11.521Z,12.35
2023-05-04T23:10:59.878Z,12.34
2023-05-04T23:13:48.197Z,12.23
2023-05-04T23:16:36.558Z,12.17
2023-05-04T23:19:24.900Z,12.11
2023-05-04T23:22:13.436Z,12.06
2023-05-04T23:25:03.273Z,11.92
2023-05-04T23:27:51.636Z,11.89
2023-05-04T23:30:40.033Z,11.88
2023-05-04T23:33:28.370Z,11.90
2023-05-04T23:36:16.845Z,11.86
2023-05-04T23:39:05.196Z,11.83
2023-05-04T23:41:55.163Z,11.78
2023-05-04T23:44:43.561Z,11.76
2023-05-04T23:47:32.008Z,11.74
2023-05-04T23:50:20.440Z,11.71
2023-05-04T23:53:08.806Z,11.70
2023-05-04T23:56:03.384Z,11.70
2023-05-04T23:58:53.972Z,11.68
